sensor_id;sensor_type;location;lat;lon;timestamp;temperature;humidity
70321;DHT22;61127;55.826;37.046;2023-06-10T00:00:43;11.18;57.06
70321;DHT22;61127;55.826;37.046;2023-06-10T00:03:11;11.15;56.44
70321;DHT22;61127;55.826;37.046;2023-06-10T00:05:38;11.15;56.47
70321;DHT22;61127;55.826;37.046;2023-06-10T00:08:06;11.13;56.86
70321;DHT22;61127;55.826;37.046;2023-06-10T00:10:38;11.11;56.51
70321;DHT22;61127;55.826;37.046;2023-06-10T00:13:06;11.12;55.23
70321;DHT22;61127;55.826;37.046;2023-06-10T00:15:34;11.14;56.63
70321;DHT22;61127;55.826;37.046;2023-06-10T00:18:04;11.20;56.87
70321;DHT22;61127;55.826;37.046;2023-06-10T00:20:30;11.25;56.67
70321;DHT22;61127;55.826;37.046;2023-06-10T00:22:58;11.26;56.81
70321;DHT22;61127;55.826;37.046;2023-06-10T00:25:25;11.24;56.56
70321;DHT22;61127;55.826;37.046;2023-06-10T00:27:51;11.25;56.53
70321;DHT22;61127;55.826;37.046;2023-06-10T00:30:18;11.24;56.88
70321;DHT22;61127;55.826;37.046;2023-06-10T00:32:44;11.19;57.35
70321;DHT22;61127;55.826;37.046;2023-06-10T00:35:10;11.15;57.08
70321;DHT22;61127;55.826;37.046;2023-06-10T00:37:37;11.13;57.13
70321;DHT22;61127;55.826;37.046;2023-06-10T00:40:04;11.11;57.05
70321;DHT22;61127;55.826;37.046;2023-06-10T00:42:32;11.10;56.91
70321;DHT22;61127;55.826;37.046;2023-06-10T00:44:59;11.11;57.03
70321;DHT22;61127;55.826;37.046;2023-06-10T00:47:26;11.13;57.16
70321;DHT22;61127;55.826;37.046;2023-06-10T00:49:53;11.14;56.92
70321;DHT22;61127;55.826;37.046;2023-06-10T00:52:22;11.12;57.10
70321;DHT22;61127;55.826;37.046;2023-06-10T00:54:48;11.13;57.01
70321;DHT22;61127;55.826;37.046;2023-06-10T00:57:15;11.14;56.68
70321;DHT22;61127;55.826;37.046;2023-06-10T00:59:43;11.14;56.97
70321;DHT22;61127;55.826;37.046;2023-06-10T01:02:12;11.12;57.32
70321;DHT22;61127;55.826;37.046;2023-06-10T01:04:38;11.11;57.20
70321;DHT22;61127;55.826;37.046;2023-06-10T01:07:31;11.07;57.42
70321;DHT22;61127;55.826;37.046;2023-06-10T01:12:59;10.99;58.30
70321;DHT22;61127;55.826;37.046;2023-06-10T01:15:33;10.95;57.78
70321;DHT22;61127;55.826;37.046;2023-06-10T01:18:18;10.90;57.79
70321;DHT22;61127;55.826;37.046;2023-06-10T01:20:46;10.86;58.10
70321;DHT22;61127;55.826;37.046;2023-06-10T01:23:15;10.82;58.24
70321;DHT22;61127;55.826;37.046;2023-06-10T01:25:48;10.81;58.48
70321;DHT22;61127;55.826;37.046;2023-06-10T01:33:52;10.77;58.52
70321;DHT22;61127;55.826;37.046;2023-06-10T01:36:19;10.74;58.96
70321;DHT22;61127;55.826;37.046;2023-06-10T01:38:47;10.71;58.83
70321;DHT22;61127;55.826;37.046;2023-06-10T01:41:17;10.67;58.58
70321;DHT22;61127;55.826;37.046;2023-06-10T01:43:45;10.66;59.09
70321;DHT22;61127;55.826;37.046;2023-06-10T01:46:14;10.65;58.83
70321;DHT22;61127;55.826;37.046;2023-06-10T01:48:41;10.66;58.91
70321;DHT22;61127;55.826;37.046;2023-06-10T01:51:09;10.67;59.05
70321;DHT22;61127;55.826;37.046;2023-06-10T01:53:36;10.70;59.14
70321;DHT22;61127;55.826;37.046;2023-06-10T01:56:02;10.72;59.06
70321;DHT22;61127;55.826;37.046;2023-06-10T01:58:29;10.72;59.01
70321;DHT22;61127;55.826;37.046;2023-06-10T02:00:56;10.77;59.25
70321;DHT22;61127;55.826;37.046;2023-06-10T02:03:22;10.77;59.09
70321;DHT22;61127;55.826;37.046;2023-06-10T02:05:49;10.80;59.27
70321;DHT22;61127;55.826;37.046;2023-06-10T02:08:16;10.83;59.03
70321;DHT22;61127;55.826;37.046;2023-06-10T02:10:43;10.85;59.58
70321;DHT22;61127;55.826;37.046;2023-06-10T02:13:10;10.87;58.80
70321;DHT22;61127;55.826;37.046;2023-06-10T02:15:38;10.90;59.25
70321;DHT22;61127;55.826;37.046;2023-06-10T02:18:04;10.94;58.83
70321;DHT22;61127;55.826;37.046;2023-06-10T02:20:30;10.98;58.32
70321;DHT22;61127;55.826;37.046;2023-06-10T02:22:57;10.99;58.75
70321;DHT22;61127;55.826;37.046;2023-06-10T02:25:23;11.04;58.82
70321;DHT22;61127;55.826;37.046;2023-06-10T02:27:50;11.09;58.98
70321;DHT22;61127;55.826;37.046;2023-06-10T02:30:17;11.12;58.69
70321;DHT22;61127;55.826;37.046;2023-06-10T02:32:45;11.15;58.19
70321;DHT22;61127;55.826;37.046;2023-06-10T02:35:15;11.20;58.70
70321;DHT22;61127;55.826;37.046;2023-06-10T02:37:43;11.28;58.42
70321;DHT22;61127;55.826;37.046;2023-06-10T02:40:10;11.30;58.49
70321;DHT22;61127;55.826;37.046;2023-06-10T02:42:37;11.34;58.28
70321;DHT22;61127;55.826;37.046;2023-06-10T02:45:04;11.42;58.86
70321;DHT22;61127;55.826;37.046;2023-06-10T02:47:38;11.48;58.16
70321;DHT22;61127;55.826;37.046;2023-06-10T02:50:06;11.56;57.13
70321;DHT22;61127;55.826;37.046;2023-06-10T02:52:37;11.54;56.87
70321;DHT22;61127;55.826;37.046;2023-06-10T02:55:04;11.56;58.54
70321;DHT22;61127;55.826;37.046;2023-06-10T02:57:32;11.59;56.77
70321;DHT22;61127;55.826;37.046;2023-06-10T02:59:58;11.62;56.75
70321;DHT22;61127;55.826;37.046;2023-06-10T03:02:25;11.64;57.61
70321;DHT22;61127;55.826;37.046;2023-06-10T03:04:55;11.66;57.32
70321;DHT22;61127;55.826;37.046;2023-06-10T03:07:22;11.71;57.46
70321;DHT22;61127;55.826;37.046;2023-06-10T03:09:50;11.78;57.67
70321;DHT22;61127;55.826;37.046;2023-06-10T03:12:17;11.83;57.82
70321;DHT22;61127;55.826;37.046;2023-06-10T03:14:46;11.90;56.66
70321;DHT22;61127;55.826;37.046;2023-06-10T03:17:12;11.93;57.20
70321;DHT22;61127;55.826;37.046;2023-06-10T03:19:41;12.01;57.16
70321;DHT22;61127;55.826;37.046;2023-06-10T03:22:12;12.10;56.89
70321;DHT22;61127;55.826;37.046;2023-06-10T03:24:47;12.16;56.67
70321;DHT22;61127;55.826;37.046;2023-06-10T03:27:16;12.21;55.96
70321;DHT22;61127;55.826;37.046;2023-06-10T03:29:47;12.23;55.78
70321;DHT22;61127;55.826;37.046;2023-06-10T03:32:13;12.20;55.92
70321;DHT22;61127;55.826;37.046;2023-06-10T03:34:41;12.21;56.13
70321;DHT22;61127;55.826;37.046;2023-06-10T03:37:07;12.28;56.47
70321;DHT22;61127;55.826;37.046;2023-06-10T03:39:33;12.35;56.29
70321;DHT22;61127;55.826;37.046;2023-06-10T03:42:01;12.41;57.32
70321;DHT22;61127;55.826;37.046;2023-06-10T03:44:28;12.45;55.22
70321;DHT22;61127;55.826;37.046;2023-06-10T03:46:55;12.51;55.89
70321;DHT22;61127;55.826;37.046;2023-06-10T03:49:22;12.63;55.93
70321;DHT22;61127;55.826;37.046;2023-06-10T03:51:55;12.72;55.77
70321;DHT22;61127;55.826;37.046;2023-06-10T03:54:22;12.78;54.48
70321;DHT22;61127;55.826;37.046;2023-06-10T03:56:48;12.76;53.91
70321;DHT22;61127;55.826;37.046;2023-06-10T03:59:15;12.78;54.84
70321;DHT22;61127;55.826;37.046;2023-06-10T04:01:41;12.85;54.21
70321;DHT22;61127;55.826;37.046;2023-06-10T04:04:08;12.92;54.05
70321;DHT22;61127;55.826;37.046;2023-06-10T04:06:35;13.02;54.26
70321;DHT22;61127;55.826;37.046;2023-06-10T04:09:03;13.12;53.63
70321;DHT22;61127;55.826;37.046;2023-06-10T04:11:31;13.17;53.62
70321;DHT22;61127;55.826;37.046;2023-06-10T04:13:58;13.09;52.87
70321;DHT22;61127;55.826;37.046;2023-06-10T04:16:25;13.15;53.80
70321;DHT22;61127;55.826;37.046;2023-06-10T04:18:52;13.24;53.11
70321;DHT22;61127;55.826;37.046;2023-06-10T04:21:18;13.36;53.33
70321;DHT22;61127;55.826;37.046;2023-06-10T04:23:45;13.49;53.10
70321;DHT22;61127;55.826;37.046;2023-06-10T04:26:11;13.62;53.39
70321;DHT22;61127;55.826;37.046;2023-06-10T04:28:39;13.77;53.00
70321;DHT22;61127;55.826;37.046;2023-06-10T04:31:05;13.92;53.00
70321;DHT22;61127;55.826;37.046;2023-06-10T04:33:32;14.09;52.68
70321;DHT22;61127;55.826;37.046;2023-06-10T04:36:00;14.25;52.55
70321;DHT22;61127;55.826;37.046;2023-06-10T04:38:29;14.45;52.13
70321;DHT22;61127;55.826;37.046;2023-06-10T04:40:58;14.60;50.50
70321;DHT22;61127;55.826;37.046;2023-06-10T04:43:26;14.72;50.27
70321;DHT22;61127;55.826;37.046;2023-06-10T04:45:55;14.78;49.79
70321;DHT22;61127;55.826;37.046;2023-06-10T04:48:21;14.89;49.99
70321;DHT22;61127;55.826;37.046;2023-06-10T04:50:50;15.11;50.25
70321;DHT22;61127;55.826;37.046;2023-06-10T04:53:16;15.19;49.24
70321;DHT22;61127;55.826;37.046;2023-06-10T04:55:45;15.33;49.16
70321;DHT22;61127;55.826;37.046;2023-06-10T04:58:11;15.40;47.56
70321;DHT22;61127;55.826;37.046;2023-06-10T05:00:37;15.54;48.59
70321;DHT22;61127;55.826;37.046;2023-06-10T05:03:03;15.76;48.33
70321;DHT22;61127;55.826;37.046;2023-06-10T05:05:29;15.99;47.11
70321;DHT22;61127;55.826;37.046;2023-06-10T05:07:55;16.25;48.04
70321;DHT22;61127;55.826;37.046;2023-06-10T05:10:21;16.48;46.51
70321;DHT22;61127;55.826;37.046;2023-06-10T05:12:47;16.74;46.62
70321;DHT22;61127;55.826;37.046;2023-06-10T05:15:13;17.01;46.65
70321;DHT22;61127;55.826;37.046;2023-06-10T05:17:40;17.22;44.74
70321;DHT22;61127;55.826;37.046;2023-06-10T05:20:06;17.34;44.96
70321;DHT22;61127;55.826;37.046;2023-06-10T05:22:32;17.45;44.62
70321;DHT22;61127;55.826;37.046;2023-06-10T05:24:58;17.68;45.77
70321;DHT22;61127;55.826;37.046;2023-06-10T05:27:24;17.77;45.06
70321;DHT22;61127;55.826;37.046;2023-06-10T05:29:51;17.89;44.54
70321;DHT22;61127;55.826;37.046;2023-06-10T05:32:18;18.11;43.25
70321;DHT22;61127;55.826;37.046;2023-06-10T05:34:44;18.26;42.77
70321;DHT22;61127;55.826;37.046;2023-06-10T05:37:11;18.49;42.24
70321;DHT22;61127;55.826;37.046;2023-06-10T05:39:38;18.67;42.72
70321;DHT22;61127;55.826;37.046;2023-06-10T05:42:06;18.83;42.39
70321;DHT22;61127;55.826;37.046;2023-06-10T05:44:33;18.91;42.18
70321;DHT22;61127;55.826;37.046;2023-06-10T05:47:00;18.87;41.50
70321;DHT22;61127;55.826;37.046;2023-06-10T05:49:26;18.71;40.73
70321;DHT22;61127;55.826;37.046;2023-06-10T05:51:53;18.66;39.27
70321;DHT22;61127;55.826;37.046;2023-06-10T05:54:19;18.73;40.64
70321;DHT22;61127;55.826;37.046;2023-06-10T05:56:46;18.89;39.52
70321;DHT22;61127;55.826;37.046;2023-06-10T05:59:12;18.79;39.94
70321;DHT22;61127;55.826;37.046;2023-06-10T06:01:38;18.79;40.27
70321;DHT22;61127;55.826;37.046;2023-06-10T06:04:05;19.11;39.49
70321;DHT22;61127;55.826;37.046;2023-06-10T06:06:32;19.45;40.48
70321;DHT22;61127;55.826;37.046;2023-06-10T06:08:58;19.61;39.51
70321;DHT22;61127;55.826;37.046;2023-06-10T06:11:24;19.91;39.61
70321;DHT22;61127;55.826;37.046;2023-06-10T06:13:52;20.01;38.07
70321;DHT22;61127;55.826;37.046;2023-06-10T06:16:18;20.03;37.66
70321;DHT22;61127;55.826;37.046;2023-06-10T06:18:44;19.60;36.80
70321;DHT22;61127;55.826;37.046;2023-06-10T06:21:11;19.16;37.97
70321;DHT22;61127;55.826;37.046;2023-06-10T06:23:37;19.43;38.85
70321;DHT22;61127;55.826;37.046;2023-06-10T06:26:03;19.86;37.95
70321;DHT22;61127;55.826;37.046;2023-06-10T06:28:29;20.25;36.01
70321;DHT22;61127;55.826;37.046;2023-06-10T06:30:56;20.44;37.74
70321;DHT22;61127;55.826;37.046;2023-06-10T06:33:23;21.01;37.09
70321;DHT22;61127;55.826;37.046;2023-06-10T06:35:49;21.09;36.18
70321;DHT22;61127;55.826;37.046;2023-06-10T06:38:15;20.94;36.02
70321;DHT22;61127;55.826;37.046;2023-06-10T06:40:41;20.69;36.33
70321;DHT22;61127;55.826;37.046;2023-06-10T06:43:07;20.35;36.15
70321;DHT22;61127;55.826;37.046;2023-06-10T06:45:57;20.46;36.15
70321;DHT22;61127;55.826;37.046;2023-06-10T06:48:23;20.93;36.47
70321;DHT22;61127;55.826;37.046;2023-06-10T06:50:50;21.54;35.59
70321;DHT22;61127;55.826;37.046;2023-06-10T06:53:16;22.13;34.37
70321;DHT22;61127;55.826;37.046;2023-06-10T06:55:42;22.21;34.88
70321;DHT22;61127;55.826;37.046;2023-06-10T06:58:08;21.95;33.18
70321;DHT22;61127;55.826;37.046;2023-06-10T07:00:34;21.52;34.53
70321;DHT22;61127;55.826;37.046;2023-06-10T07:03:00;21.68;34.31
70321;DHT22;61127;55.826;37.046;2023-06-10T07:05:26;21.81;31.95
70321;DHT22;61127;55.826;37.046;2023-06-10T07:07:53;21.24;34.32
70321;DHT22;61127;55.826;37.046;2023-06-10T07:10:25;20.88;33.29
70321;DHT22;61127;55.826;37.046;2023-06-10T07:12:52;20.36;34.82
70321;DHT22;61127;55.826;37.046;2023-06-10T07:15:18;20.55;35.49
70321;DHT22;61127;55.826;37.046;2023-06-10T07:17:44;21.05;34.67
70321;DHT22;61127;55.826;37.046;2023-06-10T07:20:11;21.73;34.21
70321;DHT22;61127;55.826;37.046;2023-06-10T07:22:37;22.54;33.76
70321;DHT22;61127;55.826;37.046;2023-06-10T07:25:06;23.32;32.56
70321;DHT22;61127;55.826;37.046;2023-06-10T07:27:32;24.00;29.46
70321;DHT22;61127;55.826;37.046;2023-06-10T07:29:59;24.62;29.61
70321;DHT22;61127;55.826;37.046;2023-06-10T07:32:26;25.03;32.02
70321;DHT22;61127;55.826;37.046;2023-06-10T07:34:53;25.06;28.70
70321;DHT22;61127;55.826;37.046;2023-06-10T07:37:19;25.29;29.40
70321;DHT22;61127;55.826;37.046;2023-06-10T07:39:46;25.47;29.46
70321;DHT22;61127;55.826;37.046;2023-06-10T07:42:12;25.59;31.33
70321;DHT22;61127;55.826;37.046;2023-06-10T07:44:38;25.53;27.57
70321;DHT22;61127;55.826;37.046;2023-06-10T07:47:04;25.17;27.93
70321;DHT22;61127;55.826;37.046;2023-06-10T07:49:30;25.02;27.46
70321;DHT22;61127;55.826;37.046;2023-06-10T07:51:57;25.07;28.73
70321;DHT22;61127;55.826;37.046;2023-06-10T07:54:23;25.53;28.05
70321;DHT22;61127;55.826;37.046;2023-06-10T07:56:49;25.95;27.79
70321;DHT22;61127;55.826;37.046;2023-06-10T07:59:18;26.15;26.20
70321;DHT22;61127;55.826;37.046;2023-06-10T08:01:44;26.51;26.58
70321;DHT22;61127;55.826;37.046;2023-06-10T08:04:10;26.91;27.07
70321;DHT22;61127;55.826;37.046;2023-06-10T08:06:36;27.38;24.76
70321;DHT22;61127;55.826;37.046;2023-06-10T08:09:03;27.61;25.80
70321;DHT22;61127;55.826;37.046;2023-06-10T08:11:29;27.37;25.64
70321;DHT22;61127;55.826;37.046;2023-06-10T08:13:56;26.42;23.66
70321;DHT22;61127;55.826;37.046;2023-06-10T08:16:22;25.60;25.91
70321;DHT22;61127;55.826;37.046;2023-06-10T08:18:48;24.76;26.24
70321;DHT22;61127;55.826;37.046;2023-06-10T08:21:16;23.92;26.95
70321;DHT22;61127;55.826;37.046;2023-06-10T08:23:42;23.29;26.54
70321;DHT22;61127;55.826;37.046;2023-06-10T08:26:10;24.03;27.16
70321;DHT22;61127;55.826;37.046;2023-06-10T08:28:36;25.02;24.64
70321;DHT22;61127;55.826;37.046;2023-06-10T08:31:02;26.04;23.98
70321;DHT22;61127;55.826;37.046;2023-06-10T08:33:29;27.30;24.15
70321;DHT22;61127;55.826;37.046;2023-06-10T08:35:55;28.62;24.61
70321;DHT22;61127;55.826;37.046;2023-06-10T08:38:21;29.74;22.91
70321;DHT22;61127;55.826;37.046;2023-06-10T08:40:47;30.53;22.47
70321;DHT22;61127;55.826;37.046;2023-06-10T08:43:36;30.95;20.18
70321;DHT22;61127;55.826;37.046;2023-06-10T08:46:04;31.35;14.87
70321;DHT22;61127;55.826;37.046;2023-06-10T08:48:34;31.07;15.55
70321;DHT22;61127;55.826;37.046;2023-06-10T08:51:04;31.37;16.48
70321;DHT22;61127;55.826;37.046;2023-06-10T08:53:33;31.05;16.64
70321;DHT22;61127;55.826;37.046;2023-06-10T08:56:03;31.33;18.97
70321;DHT22;61127;55.826;37.046;2023-06-10T08:58:32;32.04;18.09
70321;DHT22;61127;55.826;37.046;2023-06-10T09:00:59;32.98;18.31
70321;DHT22;61127;55.826;37.046;2023-06-10T09:03:26;33.83;17.25
70321;DHT22;61127;55.826;37.046;2023-06-10T09:05:52;34.52;16.40
70321;DHT22;61127;55.826;37.046;2023-06-10T09:08:19;35.45;14.67
70321;DHT22;61127;55.826;37.046;2023-06-10T09:10:45;35.87;16.58
70321;DHT22;61127;55.826;37.046;2023-06-10T09:13:11;35.60;13.32
70321;DHT22;61127;55.826;37.046;2023-06-10T09:15:41;34.84;14.89
70321;DHT22;61127;55.826;37.046;2023-06-10T09:18:07;34.81;14.14
70321;DHT22;61127;55.826;37.046;2023-06-10T09:20:33;33.89;15.36
70321;DHT22;61127;55.826;37.046;2023-06-10T09:23:00;34.25;16.61
70321;DHT22;61127;55.826;37.046;2023-06-10T09:25:37;35.09;12.23
70321;DHT22;61127;55.826;37.046;2023-06-10T09:28:04;35.14;16.80
70321;DHT22;61127;55.826;37.046;2023-06-10T09:30:32;32.97;14.99
70321;DHT22;61127;55.826;37.046;2023-06-10T09:33:03;31.04;14.71
70321;DHT22;61127;55.826;37.046;2023-06-10T09:35:35;29.46;15.84
70321;DHT22;61127;55.826;37.046;2023-06-10T09:38:01;28.32;18.12
70321;DHT22;61127;55.826;37.046;2023-06-10T09:40:28;27.67;18.02
70321;DHT22;61127;55.826;37.046;2023-06-10T09:42:55;27.83;19.34
70321;DHT22;61127;55.826;37.046;2023-06-10T09:45:22;29.24;18.28
70321;DHT22;61127;55.826;37.046;2023-06-10T09:47:55;30.99;17.12
70321;DHT22;61127;55.826;37.046;2023-06-10T09:50:21;32.71;14.52
70321;DHT22;61127;55.826;37.046;2023-06-10T09:52:47;30.92;13.95
70321;DHT22;61127;55.826;37.046;2023-06-10T09:55:14;29.42;15.37
70321;DHT22;61127;55.826;37.046;2023-06-10T09:57:40;28.33;16.47
70321;DHT22;61127;55.826;37.046;2023-06-10T10:00:11;27.83;18.63
70321;DHT22;61127;55.826;37.046;2023-06-10T10:02:49;30.83;14.76
70321;DHT22;61127;55.826;37.046;2023-06-10T10:05:17;31.24;14.71
70321;DHT22;61127;55.826;37.046;2023-06-10T10:07:44;31.05;14.65
70321;DHT22;61127;55.826;37.046;2023-06-10T10:10:12;32.23;15.83
70321;DHT22;61127;55.826;37.046;2023-06-10T10:12:39;32.09;15.51
70321;DHT22;61127;55.826;37.046;2023-06-10T10:15:10;32.54;14.48
70321;DHT22;61127;55.826;37.046;2023-06-10T10:17:48;34.22;13.91
70321;DHT22;61127;55.826;37.046;2023-06-10T10:20:18;35.95;12.18
70321;DHT22;61127;55.826;37.046;2023-06-10T10:22:47;37.43;12.60
70321;DHT22;61127;55.826;37.046;2023-06-10T10:25:25;38.68;8.03
70321;DHT22;61127;55.826;37.046;2023-06-10T10:28:04;35.37;9.18
70321;DHT22;61127;55.826;37.046;2023-06-10T10:30:39;32.96;11.33
70321;DHT22;61127;55.826;37.046;2023-06-10T10:33:19;31.00;12.55
70321;DHT22;61127;55.826;37.046;2023-06-10T10:35:46;29.90;15.85
70321;DHT22;61127;55.826;37.046;2023-06-10T10:38:12;28.78;16.32
70321;DHT22;61127;55.826;37.046;2023-06-10T10:40:39;28.24;16.50
70321;DHT22;61127;55.826;37.046;2023-06-10T10:43:06;27.99;17.16
70321;DHT22;61127;55.826;37.046;2023-06-10T10:45:33;27.71;16.58
70321;DHT22;61127;55.826;37.046;2023-06-10T10:48:05;28.49;18.48
70321;DHT22;61127;55.826;37.046;2023-06-10T10:50:32;31.50;14.60
70321;DHT22;61127;55.826;37.046;2023-06-10T10:53:04;33.78;12.17
70321;DHT22;61127;55.826;37.046;2023-06-10T10:55:31;35.75;11.67
70321;DHT22;61127;55.826;37.046;2023-06-10T10:58:07;37.79;9.09
70321;DHT22;61127;55.826;37.046;2023-06-10T11:00:51;39.29;11.91
70321;DHT22;61127;55.826;37.046;2023-06-10T11:03:17;38.18;10.10
70321;DHT22;61127;55.826;37.046;2023-06-10T11:05:45;35.58;9.04
70321;DHT22;61127;55.826;37.046;2023-06-10T11:08:16;32.96;12.21
70321;DHT22;61127;55.826;37.046;2023-06-10T11:11:23;30.92;12.17
70321;DHT22;61127;55.826;37.046;2023-06-10T11:14:06;29.50;13.81
70321;DHT22;61127;55.826;37.046;2023-06-10T11:16:43;28.44;14.16
70321;DHT22;61127;55.826;37.046;2023-06-10T11:19:09;30.31;14.69
70321;DHT22;61127;55.826;37.046;2023-06-10T11:22:01;33.56;13.29
70321;DHT22;61127;55.826;37.046;2023-06-10T11:24:29;35.47;13.45
70321;DHT22;61127;55.826;37.046;2023-06-10T11:27:14;37.51;10.53
70321;DHT22;61127;55.826;37.046;2023-06-10T11:32:30;32.99;9.34
70321;DHT22;61127;55.826;37.046;2023-06-10T11:34:57;30.68;11.81
70321;DHT22;61127;55.826;37.046;2023-06-10T11:37:23;28.52;12.97
70321;DHT22;61127;55.826;37.046;2023-06-10T11:39:54;26.55;14.74
70321;DHT22;61127;55.826;37.046;2023-06-10T11:42:21;25.62;16.19
70321;DHT22;61127;55.826;37.046;2023-06-10T11:44:51;27.51;17.29
70321;DHT22;61127;55.826;37.046;2023-06-10T11:47:18;30.20;17.14
70321;DHT22;61127;55.826;37.046;2023-06-10T11:49:46;34.31;13.97
70321;DHT22;61127;55.826;37.046;2023-06-10T11:52:30;0.00;11.16
70321;DHT22;61127;55.826;37.046;2023-06-10T11:54:57;0.00;8.85
70321;DHT22;61127;55.826;37.046;2023-06-10T11:57:23;0.00;0.00
70321;DHT22;61127;55.826;37.046;2023-06-10T11:59:49;0.00;0.00
70321;DHT22;61127;55.826;37.046;2023-06-10T12:13:57;40.22;6.62
70321;DHT22;61127;55.826;37.046;2023-06-10T12:16:23;38.37;8.64
70321;DHT22;61127;55.826;37.046;2023-06-10T12:18:49;36.11;8.40
70321;DHT22;61127;55.826;37.046;2023-06-10T12:21:20;37.20;9.46
70321;DHT22;61127;55.826;37.046;2023-06-10T12:26:36;36.39;8.11
70321;DHT22;61127;55.826;37.046;2023-06-10T12:32:01;32.61;10.87
70321;DHT22;61127;55.826;37.046;2023-06-10T12:34:34;31.37;12.30
70321;DHT22;61127;55.826;37.046;2023-06-10T12:37:04;32.15;12.17
70321;DHT22;61127;55.826;37.046;2023-06-10T12:39:33;32.55;11.62
70321;DHT22;61127;55.826;37.046;2023-06-10T12:42:00;32.08;12.03
70321;DHT22;61127;55.826;37.046;2023-06-10T12:44:30;30.86;12.89
70321;DHT22;61127;55.826;37.046;2023-06-10T12:46:57;30.03;13.50
70321;DHT22;61127;55.826;37.046;2023-06-10T12:49:23;29.60;14.01
70321;DHT22;61127;55.826;37.046;2023-06-10T12:51:49;29.17;13.74
70321;DHT22;61127;55.826;37.046;2023-06-10T12:54:15;29.76;14.12
70321;DHT22;61127;55.826;37.046;2023-06-10T12:56:41;30.05;16.00
70321;DHT22;61127;55.826;37.046;2023-06-10T12:59:07;33.99;13.52
70321;DHT22;61127;55.826;37.046;2023-06-10T13:01:33;36.45;11.30
70321;DHT22;61127;55.826;37.046;2023-06-10T13:03:59;35.98;11.07
70321;DHT22;61127;55.826;37.046;2023-06-10T13:06:26;37.11;8.94
70321;DHT22;61127;55.826;37.046;2023-06-10T13:08:52;38.15;7.35
70321;DHT22;61127;55.826;37.046;2023-06-10T13:11:18;38.77;8.96
70321;DHT22;61127;55.826;37.046;2023-06-10T13:13:44;39.03;7.55
70321;DHT22;61127;55.826;37.046;2023-06-10T13:16:11;38.56;7.79
70321;DHT22;61127;55.826;37.046;2023-06-10T13:18:37;38.20;5.06
70321;DHT22;61127;55.826;37.046;2023-06-10T13:21:04;37.28;7.15
70321;DHT22;61127;55.826;37.046;2023-06-10T13:23:30;36.06;7.85
70321;DHT22;61127;55.826;37.046;2023-06-10T13:25:57;34.81;9.21
70321;DHT22;61127;55.826;37.046;2023-06-10T13:28:23;33.33;9.97
70321;DHT22;61127;55.826;37.046;2023-06-10T13:30:49;32.18;10.49
70321;DHT22;61127;55.826;37.046;2023-06-10T13:33:15;30.47;11.69
70321;DHT22;61127;55.826;37.046;2023-06-10T13:35:41;29.17;12.46
70321;DHT22;61127;55.826;37.046;2023-06-10T13:38:07;28.16;13.45
70321;DHT22;61127;55.826;37.046;2023-06-10T13:40:33;27.64;14.36
70321;DHT22;61127;55.826;37.046;2023-06-10T13:42:59;27.19;15.29
70321;DHT22;61127;55.826;37.046;2023-06-10T13:45:26;27.00;16.63
70321;DHT22;61127;55.826;37.046;2023-06-10T13:47:52;26.65;16.75
70321;DHT22;61127;55.826;37.046;2023-06-10T13:50:18;26.23;17.06
70321;DHT22;61127;55.826;37.046;2023-06-10T13:52:44;25.90;17.74
70321;DHT22;61127;55.826;37.046;2023-06-10T13:55:10;25.59;18.48
70321;DHT22;61127;55.826;37.046;2023-06-10T13:57:36;25.40;19.14
70321;DHT22;61127;55.826;37.046;2023-06-10T14:00:03;25.10;18.20
70321;DHT22;61127;55.826;37.046;2023-06-10T14:02:32;24.73;19.14
70321;DHT22;61127;55.826;37.046;2023-06-10T14:04:58;24.34;19.44
70321;DHT22;61127;55.826;37.046;2023-06-10T14:07:24;23.92;19.29
70321;DHT22;61127;55.826;37.046;2023-06-10T14:09:51;23.56;19.45
70321;DHT22;61127;55.826;37.046;2023-06-10T14:12:17;23.08;20.10
70321;DHT22;61127;55.826;37.046;2023-06-10T14:14:43;22.57;21.02
70321;DHT22;61127;55.826;37.046;2023-06-10T14:17:10;22.28;21.68
70321;DHT22;61127;55.826;37.046;2023-06-10T14:19:36;22.09;21.55
70321;DHT22;61127;55.826;37.046;2023-06-10T14:22:02;21.88;22.88
70321;DHT22;61127;55.826;37.046;2023-06-10T14:24:28;21.82;22.98
70321;DHT22;61127;55.826;37.046;2023-06-10T14:26:54;21.79;22.50
70321;DHT22;61127;55.826;37.046;2023-06-10T14:29:20;21.74;23.22
70321;DHT22;61127;55.826;37.046;2023-06-10T14:31:46;21.60;20.90
70321;DHT22;61127;55.826;37.046;2023-06-10T14:34:12;21.27;23.68
70321;DHT22;61127;55.826;37.046;2023-06-10T14:36:38;21.16;24.78
70321;DHT22;61127;55.826;37.046;2023-06-10T14:39:05;20.59;23.21
70321;DHT22;61127;55.826;37.046;2023-06-10T14:41:31;20.34;26.42
70321;DHT22;61127;55.826;37.046;2023-06-10T14:43:57;20.10;25.17
70321;DHT22;61127;55.826;37.046;2023-06-10T14:46:23;19.86;24.95
70321;DHT22;61127;55.826;37.046;2023-06-10T14:48:49;19.65;26.13
70321;DHT22;61127;55.826;37.046;2023-06-10T14:51:16;19.50;26.46
70321;DHT22;61127;55.826;37.046;2023-06-10T14:53:42;19.32;26.17
70321;DHT22;61127;55.826;37.046;2023-06-10T14:56:08;19.15;26.07
70321;DHT22;61127;55.826;37.046;2023-06-10T14:58:34;18.99;27.29
70321;DHT22;61127;55.826;37.046;2023-06-10T15:01:01;18.81;26.63
70321;DHT22;61127;55.826;37.046;2023-06-10T15:03:27;18.57;25.89
70321;DHT22;61127;55.826;37.046;2023-06-10T15:05:53;18.47;28.35
70321;DHT22;61127;55.826;37.046;2023-06-10T15:08:19;18.37;27.19
70321;DHT22;61127;55.826;37.046;2023-06-10T15:10:45;18.24;28.33
70321;DHT22;61127;55.826;37.046;2023-06-10T15:13:11;18.08;30.00
70321;DHT22;61127;55.826;37.046;2023-06-10T15:15:37;17.93;26.32
70321;DHT22;61127;55.826;37.046;2023-06-10T15:18:03;17.75;26.86
70321;DHT22;61127;55.826;37.046;2023-06-10T15:20:29;17.64;27.43
70321;DHT22;61127;55.826;37.046;2023-06-10T15:22:55;17.59;28.25
70321;DHT22;61127;55.826;37.046;2023-06-10T15:25:21;17.56;29.17
70321;DHT22;61127;55.826;37.046;2023-06-10T15:27:47;17.56;29.66
70321;DHT22;61127;55.826;37.046;2023-06-10T15:30:13;17.55;29.30
70321;DHT22;61127;55.826;37.046;2023-06-10T15:32:39;17.53;31.05
70321;DHT22;61127;55.826;37.046;2023-06-10T15:35:06;17.51;30.65
70321;DHT22;61127;55.826;37.046;2023-06-10T15:37:32;17.50;30.85
70321;DHT22;61127;55.826;37.046;2023-06-10T15:39:58;17.43;31.89
70321;DHT22;61127;55.826;37.046;2023-06-10T15:42:24;17.39;30.71
70321;DHT22;61127;55.826;37.046;2023-06-10T15:44:50;17.35;30.07
70321;DHT22;61127;55.826;37.046;2023-06-10T15:47:21;17.26;30.97
70321;DHT22;61127;55.826;37.046;2023-06-10T15:49:47;17.16;30.85